Time;durP1;ratioP1;P1;durP2;ratioP2;P2;SDS_P1;SDS_P2;PMS_P1;PMS_P2;Temp;Humidity;BMP_temperature;BMP_pressure;BME280_temperature;BME280_humidity;BME280_pressure;Samples;Min_cycle;Max_cycle;Signal;HPM_P1;HPM_P2
2023/06/14 00:01:45;;;;;;;4.43;2.57;;;12.30;81.60;;;;;;5086500;28;20509;-77
2023/06/14 00:04:11;;;;;;;2.50;1.83;;;12.20;81.50;;;;;;5071020;28;20300;-77
2023/06/14 00:06:38;;;;;;;4.63;2.40;;;12.20;81.00;;;;;;5087833;28;20941;-77
2023/06/14 00:09:04;;;;;;;7.23;2.30;;;12.20;81.30;;;;;;5079306;28;20426;-77
2023/06/14 00:11:33;;;;;;;4.80;2.30;;;12.20;80.50;;;;;;5073725;28;20415;-77
2023/06/14 00:13:58;;;;;;;4.93;1.90;;;12.20;80.60;;;;;;5076644;28;21013;-77
2023/06/14 00:16:24;;;;;;;10.00;2.37;;;12.10;80.10;;;;;;5070216;28;20424;-77
2023/06/14 00:18:51;;;;;;;3.23;2.10;;;12.10;80.60;;;;;;5071751;28;20178;-77
2023/06/14 00:21:17;;;;;;;3.63;1.93;;;12.10;79.90;;;;;;5080649;28;20186;-78
2023/06/14 00:23:43;;;;;;;5.30;1.97;;;12.20;78.80;;;;;;5073705;28;21005;-76
2023/06/14 00:26:08;;;;;;;3.63;2.20;;;12.20;79.20;;;;;;5078107;28;20434;-77
2023/06/14 00:28:34;;;;;;;4.17;2.10;;;12.20;79.20;;;;;;5082167;28;20189;-77
2023/06/14 00:31:00;;;;;;;3.80;2.10;;;12.00;79.00;;;;;;5078272;28;20831;-77
2023/06/14 00:33:25;;;;;;;13.30;2.90;;;12.00;80.70;;;;;;5082167;28;20235;-77
2023/06/14 00:35:53;;;;;;;4.00;1.77;;;12.00;81.00;;;;;;5073175;28;20629;-78
2023/06/14 00:38:19;;;;;;;6.97;1.97;;;11.90;81.60;;;;;;5073397;28;20574;-77
2023/06/14 00:40:45;;;;;;;4.10;2.47;;;11.90;82.40;;;;;;5086429;28;20907;-78
2023/06/14 00:43:10;;;;;;;3.60;2.03;;;11.90;82.60;;;;;;5073020;28;20430;-78
2023/06/14 00:45:36;;;;;;;8.53;2.57;;;11.90;81.80;;;;;;5086863;28;20188;-77
2023/06/14 00:48:06;;;;;;;4.50;2.30;;;11.90;82.20;;;;;;5073737;28;20185;-77
2023/06/14 00:50:32;;;;;;;4.33;2.17;;;11.80;83.10;;;;;;5073391;28;20192;-77
2023/06/14 00:53:02;;;;;;;5.33;2.23;;;11.80;83.50;;;;;;5085519;28;20470;-77
2023/06/14 00:55:28;;;;;;;3.63;1.97;;;11.80;83.60;;;;;;5093438;28;20414;-78
2023/06/14 00:57:55;;;;;;;4.23;2.30;;;11.70;82.60;;;;;;5080988;28;20447;-77
2023/06/14 01:00:21;;;;;;;4.53;2.10;;;11.70;82.70;;;;;;5077871;28;20951;-78
2023/06/14 01:02:47;;;;;;;4.23;2.00;;;11.60;83.00;;;;;;5092308;28;20425;-77
2023/06/14 01:05:14;;;;;;;4.47;2.40;;;11.60;83.60;;;;;;5073604;28;20880;-77
2023/06/14 01:07:59;;;;;;;6.80;2.23;;;11.50;83.80;;;;;;5086379;28;20185;-77
2023/06/14 01:10:35;;;;;;;4.37;2.10;;;11.50;84.20;;;;;;5084093;28;20445;-77
2023/06/14 01:13:13;;;;;;;11.83;2.67;;;11.50;84.80;;;;;;5072162;28;21035;-70
2023/06/14 01:15:40;;;;;;;4.93;2.13;;;11.30;85.40;;;;;;5076204;28;20418;-77
2023/06/14 01:18:06;;;;;;;6.37;2.67;;;11.30;85.60;;;;;;5091171;28;20454;-77
2023/06/14 01:20:36;;;;;;;4.30;2.00;;;11.30;86.10;;;;;;5087536;28;20450;-77
2023/06/14 01:23:02;;;;;;;3.80;1.90;;;11.20;86.50;;;;;;5071831;28;20423;-77
2023/06/14 01:25:28;;;;;;;3.70;2.10;;;11.20;87.00;;;;;;5072276;28;20901;-77
2023/06/14 01:27:58;;;;;;;5.97;1.87;;;11.20;86.90;;;;;;5072224;28;20173;-77
2023/06/14 01:30:27;;;;;;;4.27;1.80;;;11.20;86.70;;;;;;5071759;28;20468;-77
2023/06/14 01:32:55;;;;;;;3.53;1.83;;;11.20;87.40;;;;;;5071797;28;20536;-77
2023/06/14 01:35:21;;;;;;;4.30;1.90;;;11.10;87.70;;;;;;5072213;28;20526;-77
2023/06/14 01:37:49;;;;;;;7.50;1.77;;;11.10;87.70;;;;;;5084779;28;20506;-78
2023/06/14 01:40:15;;;;;;;5.93;2.20;;;11.10;88.30;;;;;;5071766;28;20718;-77
2023/06/14 01:42:42;;;;;;;8.67;1.90;;;11.00;88.30;;;;;;5079825;28;20426;-77
2023/06/14 01:45:09;;;;;;;4.20;2.70;;;11.00;88.60;;;;;;5083104;28;20538;-77
2023/06/14 01:47:36;;;;;;;4.80;1.67;;;11.00;89.00;;;;;;5092277;28;20800;-78
2023/06/14 01:50:03;;;;;;;3.90;2.00;;;10.90;89.10;;;;;;5091555;28;20914;-78
2023/06/14 01:52:28;;;;;;;2.87;1.80;;;10.90;88.30;;;;;;5083287;28;20416;-77
2023/06/14 01:54:54;;;;;;;4.63;2.30;;;10.90;88.70;;;;;;5073247;28;20420;-77
2023/06/14 01:57:21;;;;;;;5.10;2.10;;;10.90;89.00;;;;;;5084203;28;20294;-77
2023/06/14 01:59:48;;;;;;;2.43;1.70;;;10.80;89.00;;;;;;5072178;28;20208;-77
2023/06/14 02:02:15;;;;;;;3.87;1.80;;;10.80;88.70;;;;;;5079980;28;20830;-77
2023/06/14 02:04:41;;;;;;;4.07;2.17;;;10.90;88.50;;;;;;5090569;28;20430;-77
2023/06/14 02:07:07;;;;;;;3.40;1.90;;;10.90;87.70;;;;;;5080878;28;20419;-77
2023/06/14 02:09:34;;;;;;;3.53;2.20;;;11.00;87.60;;;;;;5091684;28;20440;-77
2023/06/14 02:12:00;;;;;;;4.23;1.93;;;10.90;87.50;;;;;;5092145;28;20437;-77
2023/06/14 02:14:26;;;;;;;4.00;2.20;;;10.90;87.70;;;;;;5074725;28;20470;-77
2023/06/14 02:16:52;;;;;;;8.10;2.27;;;10.80;88.70;;;;;;5081066;28;20249;-77
2023/06/14 02:19:19;;;;;;;5.43;2.50;;;10.80;89.30;;;;;;5076577;28;20379;-76
2023/06/14 02:21:46;;;;;;;5.43;2.63;;;10.70;89.50;;;;;;5077666;28;20992;-77
2023/06/14 02:24:11;;;;;;;7.53;3.03;;;10.60;90.20;;;;;;5071499;28;20466;-77
2023/06/14 02:26:43;;;;;;;5.37;2.03;;;10.60;90.10;;;;;;5080650;28;20453;-76
2023/06/14 02:29:10;;;;;;;6.93;2.70;;;10.60;90.20;;;;;;5075731;28;20215;-77
2023/06/14 02:31:37;;;;;;;5.23;2.60;;;10.50;90.50;;;;;;5081423;28;20501;-76
2023/06/14 02:34:03;;;;;;;4.03;2.53;;;10.50;90.50;;;;;;5088587;28;20513;-77
2023/06/14 02:36:32;;;;;;;5.30;2.60;;;10.60;90.10;;;;;;5072000;28;20419;-77
2023/06/14 02:38:57;;;;;;;4.77;2.53;;;10.60;89.80;;;;;;5071550;28;20209;-77
2023/06/14 02:41:24;;;;;;;2.77;2.00;;;10.50;90.20;;;;;;5076867;28;20927;-77
2023/06/14 02:43:49;;;;;;;2.83;1.63;;;10.40;90.50;;;;;;5075132;28;20177;-76
2023/06/14 02:46:15;;;;;;;5.80;1.90;;;10.50;90.50;;;;;;5072028;28;20426;-77
2023/06/14 02:48:41;;;;;;;4.43;2.10;;;10.40;91.00;;;;;;5082537;28;20790;-77
2023/06/14 02:51:08;;;;;;;7.37;2.20;;;10.40;91.10;;;;;;5071559;28;20176;-77
2023/06/14 02:53:34;;;;;;;5.50;2.83;;;10.30;91.20;;;;;;5073902;28;20204;-77
2023/06/14 02:56:00;;;;;;;7.67;2.77;;;10.40;91.20;;;;;;5091315;28;20425;-77
2023/06/14 02:58:26;;;;;;;4.83;1.87;;;10.30;91.10;;;;;;5088830;28;20402;-77
2023/06/14 03:00:55;;;;;;;8.03;3.07;;;10.30;91.40;;;;;;5070357;28;20502;-77
2023/06/14 03:03:21;;;;;;;6.47;3.10;;;10.30;91.50;;;;;;5070820;28;20188;-77
2023/06/14 03:05:49;;;;;;;5.27;2.77;;;10.30;91.50;;;;;;5071015;28;20419;-77
2023/06/14 03:08:16;;;;;;;4.90;2.60;;;10.20;91.70;;;;;;5071195;28;20429;-77
2023/06/14 03:10:48;;;;;;;5.40;2.70;;;10.20;91.80;;;;;;5070459;28;21125;-77
2023/06/14 03:13:20;;;;;;;6.67;2.70;;;10.30;91.90;;;;;;5081031;28;20457;-76
2023/06/14 03:15:47;;;;;;;4.67;2.00;;;10.20;92.10;;;;;;5070917;28;20407;-77
2023/06/14 03:18:14;;;;;;;3.63;2.00;;;10.20;92.20;;;;;;5084617;28;20501;-77
2023/06/14 03:20:40;;;;;;;5.13;3.33;;;10.10;92.30;;;;;;5071089;28;20419;-77
2023/06/14 03:23:07;;;;;;;8.83;2.57;;;10.10;92.40;;;;;;5070717;28;20802;-77
2023/06/14 03:25:35;;;;;;;5.83;2.93;;;10.10;92.30;;;;;;5070750;28;20510;-77
2023/06/14 03:28:01;;;;;;;5.23;2.30;;;10.10;92.40;;;;;;5084788;28;20428;-77
2023/06/14 03:30:27;;;;;;;6.83;3.13;;;10.10;92.60;;;;;;5071000;28;20441;-77
2023/06/14 03:32:52;;;;;;;5.43;1.63;;;10.10;92.60;;;;;;5070594;28;20454;-77
2023/06/14 03:35:19;;;;;;;3.47;2.17;;;10.10;92.90;;;;;;5082797;28;20184;-77
2023/06/14 03:37:45;;;;;;;3.43;2.23;;;10.10;93.20;;;;;;5083756;28;20185;-77
2023/06/14 03:40:12;;;;;;;3.63;2.20;;;10.00;93.10;;;;;;5074196;28;20807;-76
2023/06/14 03:42:38;;;;;;;3.13;1.93;;;10.00;93.20;;;;;;5090974;28;20501;-77
2023/06/14 03:45:05;;;;;;;5.63;2.47;;;9.90;93.90;;;;;;5077006;28;20495;-78
2023/06/14 03:47:30;;;;;;;4.63;2.67;;;10.00;93.50;;;;;;5078111;28;20176;-77
2023/06/14 03:49:56;;;;;;;5.80;2.40;;;10.10;93.60;;;;;;5076447;28;20453;-76
2023/06/14 03:52:23;;;;;;;4.03;1.90;;;10.10;93.90;;;;;;5090585;28;20689;-77
2023/06/14 03:54:49;;;;;;;3.30;2.00;;;10.10;93.90;;;;;;5093359;28;20210;-77
2023/06/14 03:57:15;;;;;;;7.70;2.30;;;10.10;94.20;;;;;;5082299;28;20534;-77
2023/06/14 03:59:41;;;;;;;4.13;2.23;;;10.20;94.00;;;;;;5094728;28;20187;-77
2023/06/14 04:02:09;;;;;;;5.53;2.67;;;10.10;94.20;;;;;;5086979;28;20407;-77
2023/06/14 04:04:35;;;;;;;3.90;2.23;;;10.20;94.40;;;;;;5074625;28;20394;-77
2023/06/14 04:07:03;;;;;;;6.53;3.57;;;10.20;94.70;;;;;;5082458;28;20524;-77
2023/06/14 04:09:31;;;;;;;6.70;3.03;;;10.20;94.50;;;;;;5081054;28;20435;-77
2023/06/14 04:11:57;;;;;;;4.20;2.13;;;10.30;94.60;;;;;;5086236;28;20774;-77
2023/06/14 04:14:23;;;;;;;6.30;2.77;;;10.40;94.30;;;;;;5076338;28;20466;-77
2023/06/14 04:16:49;;;;;;;4.70;2.37;;;10.50;94.20;;;;;;5079747;28;20177;-77
2023/06/14 04:19:15;;;;;;;5.37;2.03;;;10.60;93.80;;;;;;5075071;28;20260;-76
2023/06/14 04:21:42;;;;;;;4.43;2.50;;;10.60;93.90;;;;;;5079658;28;20423;-77
2023/06/14 04:24:12;;;;;;;5.60;2.53;;;10.60;93.70;;;;;;5074857;28;20420;-77
2023/06/14 04:26:44;;;;;;;4.47;2.20;;;10.70;93.20;;;;;;5086060;28;20437;-76
2023/06/14 04:29:16;;;;;;;4.67;2.40;;;10.70;93.30;;;;;;5090099;28;20905;-77
2023/06/14 04:31:46;;;;;;;11.83;3.37;;;10.80;93.20;;;;;;5093852;28;20788;-76
2023/06/14 04:34:16;;;;;;;4.20;2.77;;;10.90;93.40;;;;;;5091034;28;20459;-77
2023/06/14 04:36:49;;;;;;;13.27;2.73;;;11.00;93.30;;;;;;5073842;28;20911;-76
2023/06/14 04:39:21;;;;;;;4.30;2.17;;;11.10;93.30;;;;;;5073537;28;20408;-77
2023/06/14 04:41:47;;;;;;;3.97;2.57;;;11.00;93.30;;;;;;5086892;28;20410;-77
2023/06/14 04:44:13;;;;;;;3.20;2.17;;;11.10;93.70;;;;;;5063262;28;20411;-76
2023/06/14 04:46:48;;;;;;;8.63;2.77;;;11.10;93.90;;;;;;5080540;28;20454;-77
2023/06/14 04:49:15;;;;;;;9.33;3.03;;;11.10;93.70;;;;;;5073983;28;20410;-77
2023/06/14 04:51:42;;;;;;;3.73;2.30;;;11.30;93.10;;;;;;5086417;28;20906;-77
2023/06/14 04:54:13;;;;;;;4.77;2.03;;;11.40;93.20;;;;;;5081662;28;20472;-77
2023/06/14 04:56:38;;;;;;;6.57;2.77;;;11.40;93.00;;;;;;5078442;28;20755;-77
2023/06/14 04:59:04;;;;;;;4.23;2.70;;;11.50;93.10;;;;;;5073847;28;20479;-77
2023/06/14 05:01:31;;;;;;;4.27;2.40;;;11.60;93.30;;;;;;5072791;28;20219;-76
2023/06/14 05:03:57;;;;;;;8.77;3.57;;;11.60;93.00;;;;;;5073517;28;20416;-76
2023/06/14 05:06:23;;;;;;;4.83;2.43;;;11.70;93.30;;;;;;5072020;28;20423;-77
2023/06/14 05:08:49;;;;;;;4.87;2.30;;;11.70;92.60;;;;;;5081994;28;20426;-77
2023/06/14 05:11:16;;;;;;;6.00;2.77;;;11.80;91.60;;;;;;5093325;28;20188;-77
2023/06/14 05:13:43;;;;;;;7.83;3.73;;;11.90;91.40;;;;;;5081736;28;20193;-76
2023/06/14 05:16:09;;;;;;;5.93;3.20;;;12.00;91.90;;;;;;5073091;28;20996;-76
2023/06/14 05:18:35;;;;;;;3.97;2.40;;;12.10;92.20;;;;;;5082071;28;20411;-77
2023/06/14 05:21:01;;;;;;;5.50;2.63;;;12.20;92.20;;;;;;5077099;28;20264;-76
2023/06/14 05:23:27;;;;;;;12.13;2.50;;;12.20;92.00;;;;;;5072718;28;20415;-76
2023/06/14 05:25:52;;;;;;;7.73;2.53;;;12.30;92.00;;;;;;5083749;28;20514;-77
2023/06/14 05:28:18;;;;;;;5.90;2.47;;;12.40;92.10;;;;;;5073193;28;20185;-77
2023/06/14 05:30:44;;;;;;;5.37;2.70;;;12.40;91.80;;;;;;5087874;28;20195;-77
2023/06/14 05:33:09;;;;;;;5.03;2.50;;;12.40;91.40;;;;;;5092654;28;20491;-77
2023/06/14 05:35:35;;;;;;;3.70;2.10;;;12.60;91.40;;;;;;5077465;28;20189;-77
2023/06/14 05:38:01;;;;;;;3.20;2.07;;;12.70;91.10;;;;;;5072780;28;20174;-77
2023/06/14 05:40:26;;;;;;;6.77;2.13;;;12.80;90.40;;;;;;5070285;28;20834;-71
2023/06/14 05:42:52;;;;;;;5.00;2.10;;;12.80;90.10;;;;;;5083435;28;20185;-73
2023/06/14 05:45:18;;;;;;;7.00;2.93;;;13.00;90.70;;;;;;5075923;28;20181;-73
2023/06/14 05:47:43;;;;;;;4.93;2.23;;;13.10;90.00;;;;;;5081841;28;20180;-73
2023/06/14 05:50:09;;;;;;;5.07;2.03;;;13.20;90.90;;;;;;5080474;28;20238;-73
2023/06/14 05:52:38;;;;;;;5.90;2.33;;;13.30;90.30;;;;;;5082336;28;20204;-73
2023/06/14 05:55:04;;;;;;;5.67;2.87;;;13.30;90.10;;;;;;5077187;28;20422;-73
2023/06/14 05:57:30;;;;;;;7.67;2.47;;;13.40;89.80;;;;;;5072016;28;20418;-73
2023/06/14 05:59:56;;;;;;;6.20;2.80;;;13.50;90.60;;;;;;5083339;28;20415;-73
2023/06/14 06:02:21;;;;;;;4.30;2.63;;;13.60;90.70;;;;;;5084848;28;20671;-73
2023/06/14 06:04:47;;;;;;;5.70;2.87;;;13.70;88.70;;;;;;5075797;28;20191;-73
2023/06/14 06:07:13;;;;;;;3.90;2.10;;;13.80;89.20;;;;;;5068707;28;20183;-73
2023/06/14 06:09:38;;;;;;;5.20;2.77;;;14.00;88.60;;;;;;5066323;28;20189;-74
2023/06/14 06:12:06;;;;;;;6.30;2.70;;;14.20;87.00;;;;;;5067573;28;20181;-73
2023/06/14 06:14:32;;;;;;;5.07;2.47;;;14.40;85.30;;;;;;5067736;28;20240;-73
2023/06/14 06:16:58;;;;;;;6.93;2.50;;;14.60;83.30;;;;;;5071133;28;20478;-74
2023/06/14 06:19:24;;;;;;;4.67;1.87;;;14.80;79.50;;;;;;5066183;28;20174;-73
2023/06/14 06:21:50;;;;;;;3.37;1.43;;;15.00;78.60;;;;;;5073643;28;20258;-74
2023/06/14 06:24:16;;;;;;;5.10;2.40;;;15.20;76.40;;;;;;5070998;28;20502;-74
2023/06/14 06:26:42;;;;;;;4.93;2.60;;;15.30;76.40;;;;;;5080655;28;20195;-74
2023/06/14 06:29:07;;;;;;;2.97;1.53;;;15.40;75.90;;;;;;5070539;28;20193;-72
2023/06/14 06:31:33;;;;;;;4.53;2.17;;;15.50;75.70;;;;;;5070910;28;20427;-71
2023/06/14 06:33:58;;;;;;;5.10;2.10;;;15.60;76.30;;;;;;5065579;28;20205;-71
2023/06/14 06:36:24;;;;;;;5.30;2.33;;;15.80;74.70;;;;;;5076950;28;20666;-71
2023/06/14 06:38:50;;;;;;;3.97;2.17;;;15.90;75.00;;;;;;5071106;28;20180;-72
2023/06/14 06:41:16;;;;;;;3.47;2.07;;;16.00;74.20;;;;;;5070828;28;20259;-73
2023/06/14 06:43:41;;;;;;;3.20;2.00;;;16.00;74.90;;;;;;5070481;28;20199;-73
2023/06/14 06:46:07;;;;;;;7.13;2.33;;;16.20;76.10;;;;;;5073005;28;20236;-73
2023/06/14 06:48:33;;;;;;;3.50;1.63;;;16.30;74.40;;;;;;5071149;28;20184;-71
2023/06/14 06:50:59;;;;;;;4.00;2.33;;;16.30;73.20;;;;;;5071164;28;20239;-70
2023/06/14 06:53:24;;;;;;;4.37;2.10;;;16.40;75.30;;;;;;5070581;28;20196;-70
2023/06/14 06:55:51;;;;;;;4.43;2.73;;;16.60;74.20;;;;;;5079369;28;20722;-73
2023/06/14 06:58:17;;;;;;;4.20;1.73;;;16.90;73.90;;;;;;5077098;28;20461;-72
2023/06/14 07:00:42;;;;;;;2.60;1.83;;;17.10;73.90;;;;;;5082109;28;20181;-72
2023/06/14 07:03:09;;;;;;;4.33;2.60;;;17.20;72.30;;;;;;5070210;28;20560;-73
2023/06/14 07:05:34;;;;;;;3.90;2.30;;;17.20;73.80;;;;;;5070572;28;20847;-73
2023/06/14 07:08:00;;;;;;;3.33;1.90;;;17.30;73.20;;;;;;5070868;28;20415;-72
2023/06/14 07:10:25;;;;;;;3.37;2.27;;;17.60;73.70;;;;;;5070225;28;20572;-72
2023/06/14 07:12:51;;;;;;;2.67;1.50;;;17.70;73.00;;;;;;5070595;28;20271;-72
2023/06/14 07:15:17;;;;;;;4.03;2.13;;;18.00;74.40;;;;;;5078590;28;20179;-72
2023/06/14 07:17:42;;;;;;;4.07;1.80;;;18.10;74.70;;;;;;5071630;28;20185;-72
2023/06/14 07:20:11;;;;;;;4.27;1.90;;;18.40;72.80;;;;;;5072124;28;20173;-72
2023/06/14 07:22:43;;;;;;;6.10;2.50;;;18.70;71.80;;;;;;5070848;28;20185;-71
2023/06/14 07:25:09;;;;;;;7.10;2.77;;;19.10;69.90;;;;;;5061472;28;20434;-73
2023/06/14 07:27:35;;;;;;;8.40;2.10;;;19.60;69.30;;;;;;5070842;28;20969;-72
2023/06/14 07:30:01;;;;;;;6.43;2.63;;;19.90;68.00;;;;;;5081773;28;20415;-72
2023/06/14 07:32:27;;;;;;;4.93;2.30;;;20.10;68.30;;;;;;5087333;28;20169;-73
2023/06/14 07:34:52;;;;;;;4.57;1.80;;;20.60;64.40;;;;;;5070865;28;20288;-73
2023/06/14 07:37:18;;;;;;;8.03;2.27;;;20.80;63.70;;;;;;5070506;28;20203;-73
2023/06/14 07:39:43;;;;;;;4.23;2.00;;;21.20;62.90;;;;;;5070083;28;20251;-72
2023/06/14 07:42:10;;;;;;;3.27;1.90;;;21.90;60.80;;;;;;5069773;28;20184;-73
2023/06/14 07:44:36;;;;;;;3.47;2.00;;;23.00;58.90;;;;;;5070506;28;20636;-71
2023/06/14 07:47:01;;;;;;;4.53;1.80;;;23.50;57.30;;;;;;5087437;28;20452;-71
2023/06/14 07:49:27;;;;;;;4.47;2.40;;;24.80;54.80;;;;;;5080386;28;20257;-71
2023/06/14 07:51:53;;;;;;;2.85;1.70;;;24.30;55.20;;;;;;5073014;28;20176;-70
2023/06/14 07:54:20;;;;;;;4.30;2.17;;;24.70;53.40;;;;;;5080068;28;20200;-68
2023/06/14 07:56:45;;;;;;;5.82;2.13;;;25.20;53.30;;;;;;5083684;28;20183;-70
2023/06/14 07:59:11;;;;;;;12.52;2.08;;;25.60;51.60;;;;;;5070156;28;20184;-71
2023/06/14 08:01:37;;;;;;;3.85;2.13;;;25.90;51.00;;;;;;5073455;28;20176;-71
2023/06/14 08:04:02;;;;;;;6.15;2.15;;;26.10;50.60;;;;;;5079087;28;20562;-69
2023/06/14 08:06:28;;;;;;;4.15;2.28;;;26.00;50.00;;;;;;5070697;28;20480;-70
2023/06/14 08:08:54;;;;;;;8.38;2.42;;;26.30;50.20;;;;;;5080479;28;20180;-71
2023/06/14 08:11:19;;;;;;;7.10;2.35;;;26.00;50.20;;;;;;5073497;28;20250;-70
2023/06/14 08:13:45;;;;;;;11.27;2.50;;;25.50;50.90;;;;;;5070083;28;20236;-70
2023/06/14 08:16:10;;;;;;;3.53;1.88;;;26.20;49.70;;;;;;5070136;28;20183;-71
2023/06/14 08:18:36;;;;;;;8.38;2.30;;;26.00;50.00;;;;;;5070814;28;20181;-70
2023/06/14 08:21:02;;;;;;;3.40;1.98;;;25.80;49.90;;;;;;5073611;28;20172;-70
2023/06/14 08:23:28;;;;;;;5.80;2.17;;;25.40;51.60;;;;;;5079187;28;20208;-71
2023/06/14 08:25:54;;;;;;;8.68;2.95;;;25.90;50.20;;;;;;5082500;28;20649;-71
2023/06/14 08:28:20;;;;;;;4.45;2.58;;;25.70;50.40;;;;;;5070022;28;20358;-71
2023/06/14 08:30:46;;;;;;;4.50;1.90;;;26.20;49.80;;;;;;5083226;28;20189;-74
2023/06/14 08:33:12;;;;;;;5.55;2.78;;;26.60;48.30;;;;;;5080496;28;20298;-69
2023/06/14 08:35:39;;;;;;;8.95;2.40;;;26.00;49.50;;;;;;5072398;28;20180;-70
2023/06/14 08:38:05;;;;;;;4.95;2.47;;;26.00;50.10;;;;;;5069912;28;20196;-70
2023/06/14 08:40:31;;;;;;;7.38;3.00;;;25.90;49.60;;;;;;5074230;28;20291;-71
2023/06/14 08:42:56;;;;;;;2.97;1.90;;;25.70;49.10;;;;;;5076632;28;20177;-70
2023/06/14 08:45:23;;;;;;;7.63;2.63;;;26.10;49.10;;;;;;5077691;28;20215;-71
2023/06/14 08:47:57;;;;;;;3.53;2.25;;;25.80;49.60;;;;;;5073640;28;20184;-71
2023/06/14 08:50:33;;;;;;;6.40;2.63;;;26.10;49.20;;;;;;5073441;28;20200;-71
2023/06/14 08:53:02;;;;;;;12.32;2.97;;;26.30;49.60;;;;;;5084744;28;20233;-71
2023/06/14 08:55:30;;;;;;;3.88;2.20;;;26.50;49.10;;;;;;5079195;28;20680;-71
2023/06/14 08:57:59;;;;;;;8.25;3.30;;;26.20;50.70;;;;;;5080775;28;20208;-71
2023/06/14 09:00:27;;;;;;;6.28;3.22;;;26.70;47.40;;;;;;5079493;28;20191;-71
2023/06/14 09:02:59;;;;;;;6.40;2.88;;;26.30;48.70;;;;;;5079727;28;20647;-71
2023/06/14 09:05:26;;;;;;;6.28;2.80;;;26.60;48.60;;;;;;5060070;28;20737;-70
2023/06/14 09:07:54;;;;;;;5.03;2.25;;;26.40;50.00;;;;;;5072927;28;20181;-70
2023/06/14 09:10:22;;;;;;;5.95;2.92;;;26.20;50.50;;;;;;5061994;28;20620;-71
2023/06/14 09:12:48;;;;;;;4.38;2.40;;;26.40;48.30;;;;;;5077541;28;20284;-69
2023/06/14 09:15:14;;;;;;;5.72;2.40;;;26.10;49.10;;;;;;5072881;28;20611;-73
2023/06/14 09:17:40;;;;;;;4.63;2.20;;;26.20;49.00;;;;;;5072818;28;20177;-71
2023/06/14 09:20:17;;;;;;;3.97;2.38;;;26.90;47.30;;;;;;5072647;28;20205;-70
2023/06/14 09:22:43;;;;;;;3.22;1.75;;;26.50;48.80;;;;;;5076501;28;20605;-70
2023/06/14 09:25:09;;;;;;;3.45;2.05;;;26.30;48.30;;;;;;5085355;28;20259;-69
2023/06/14 09:27:39;;;;;;;4.18;2.70;;;26.20;48.70;;;;;;5070124;28;20189;-69
2023/06/14 09:30:08;;;;;;;3.80;2.38;;;26.10;50.00;;;;;;5071054;28;20187;-70
2023/06/14 09:32:40;;;;;;;5.00;2.88;;;26.70;47.60;;;;;;5081966;28;20179;-70
2023/06/14 09:35:09;;;;;;;5.90;2.92;;;26.40;47.80;;;;;;5087437;28;20212;-68
2023/06/14 09:37:38;;;;;;;4.50;2.17;;;25.90;49.00;;;;;;5073271;28;20169;-70
2023/06/14 09:40:04;;;;;;;4.43;2.35;;;26.00;49.40;;;;;;5070635;28;20192;-70
2023/06/14 09:42:30;;;;;;;12.00;2.65;;;26.10;49.50;;;;;;5070343;28;20187;-69
2023/06/14 09:44:57;;;;;;;4.47;2.25;;;25.90;50.50;;;;;;5073297;28;20192;-68
2023/06/14 09:47:25;;;;;;;7.97;2.72;;;25.60;49.70;;;;;;5084727;28;20633;-68
2023/06/14 09:49:51;;;;;;;3.65;2.30;;;25.90;50.20;;;;;;5070892;28;20259;-69
2023/06/14 09:52:18;;;;;;;10.88;2.35;;;25.80;50.90;;;;;;5083179;28;20196;-69
2023/06/14 09:54:52;;;;;;;3.42;2.40;;;25.80;50.20;;;;;;5069761;28;20208;-70
2023/06/14 09:57:22;;;;;;;3.00;2.58;;;25.70;48.10;;;;;;5058126;28;20199;-69
2023/06/14 09:59:52;;;;;;;3.00;2.00;;;25.60;48.60;;;;;;5071942;28;20260;-69
2023/06/14 10:02:26;;;;;;;5.47;2.63;;;25.70;49.20;;;;;;5080846;28;20185;-69
2023/06/14 10:05:05;;;;;;;5.25;2.50;;;25.80;49.30;;;;;;5079382;28;20177;-70
2023/06/14 10:07:43;;;;;;;4.50;2.42;;;26.00;46.60;;;;;;5076746;28;20198;-69
2023/06/14 10:10:09;;;;;;;4.78;1.88;;;26.00;46.80;;;;;;5078578;28;20218;-70
2023/06/14 10:12:36;;;;;;;3.72;2.17;;;26.20;46.00;;;;;;5076040;28;20184;-69
2023/06/14 10:15:02;;;;;;;6.25;2.35;;;26.20;47.80;;;;;;5078286;28;20200;-69
2023/06/14 10:17:47;;;;;;;5.30;2.50;;;26.00;50.40;;;;;;5085965;28;20172;-70
2023/06/14 10:20:33;;;;;;;4.05;2.53;;;25.80;49.20;;;;;;5070479;28;20180;-69
2023/06/14 10:23:13;;;;;;;2.90;1.95;;;25.80;48.40;;;;;;5081975;28;20649;-69
2023/06/14 10:25:39;;;;;;;5.90;2.60;;;25.80;49.10;;;;;;5083564;28;20179;-69
2023/06/14 10:28:19;;;;;;;5.00;2.45;;;25.70;49.70;;;;;;5070078;28;20172;-69
2023/06/14 10:31:10;;;;;;;8.83;2.00;;;25.80;48.00;;;;;;5069543;28;20513;-70
2023/06/14 10:33:50;;;;;;;4.70;2.30;;;26.10;46.20;;;;;;5069549;28;20688;-71
2023/06/14 10:36:34;;;;;;;4.63;2.10;;;25.40;46.90;;;;;;5069943;28;20291;-70
2023/06/14 10:39:17;;;;;;;4.40;2.13;;;24.60;48.70;;;;;;5073306;28;20418;-71
2023/06/14 10:41:54;;;;;;;4.73;2.40;;;24.10;48.40;;;;;;5062717;28;20417;-70
2023/06/14 10:44:19;;;;;;;5.57;2.37;;;23.90;48.90;;;;;;5057796;28;20403;-69
2023/06/14 10:46:54;;;;;;;3.60;2.07;;;23.40;50.00;;;;;;5069657;28;20433;-70
2023/06/14 10:49:48;;;;;;;4.40;2.33;;;23.40;50.10;;;;;;5069630;28;20179;-70
2023/06/14 10:52:18;;;;;;;4.07;2.47;;;23.80;49.10;;;;;;5069530;28;20410;-70
2023/06/14 10:54:59;;;;;;;2.90;1.77;;;23.90;48.30;;;;;;5078064;28;20965;-72
2023/06/14 10:57:25;;;;;;;7.03;2.70;;;23.70;49.40;;;;;;5080062;28;20413;-69
2023/06/14 10:59:51;;;;;;;2.60;1.90;;;23.70;49.40;;;;;;5069927;28;20425;-71
2023/06/14 11:02:19;;;;;;;5.33;2.20;;;24.20;50.40;;;;;;5078188;28;20253;-70
2023/06/14 11:04:45;;;;;;;7.67;3.00;;;24.40;50.20;;;;;;5087592;28;20425;-69
2023/06/14 11:07:39;;;;;;;4.03;1.93;;;24.00;49.70;;;;;;5070344;28;20429;-69
2023/06/14 11:10:11;;;;;;;7.20;2.80;;;23.40;50.80;;;;;;5069567;28;20198;-70
2023/06/14 11:12:39;;;;;;;4.20;2.27;;;23.20;50.80;;;;;;5068117;28;20422;-70
2023/06/14 11:15:06;;;;;;;4.93;1.93;;;23.20;49.90;;;;;;5069801;28;21099;-70
2023/06/14 11:17:33;;;;;;;9.50;2.13;;;23.30;50.30;;;;;;5069510;28;20419;-70
2023/06/14 11:20:17;;;;;;;6.90;2.47;;;23.30;51.00;;;;;;5075290;28;20423;-72
2023/06/14 11:22:43;;;;;;;5.73;2.80;;;23.40;51.20;;;;;;5080744;28;20414;-77
2023/06/14 11:25:10;;;;;;;6.23;2.60;;;23.50;52.60;;;;;;5080356;28;20531;-75
2023/06/14 11:27:35;;;;;;;7.10;2.60;;;23.80;50.80;;;;;;5070296;28;20184;-76
2023/06/14 11:30:02;;;;;;;4.70;2.30;;;24.20;49.60;;;;;;5070620;28;21044;-72
2023/06/14 11:32:28;;;;;;;3.20;2.17;;;24.20;49.40;;;;;;5070098;28;20199;-73
2023/06/14 11:34:53;;;;;;;4.03;1.73;;;24.20;48.60;;;;;;5080293;28;20461;-73
2023/06/14 11:37:19;;;;;;;4.33;2.27;;;23.90;49.60;;;;;;5073938;28;20251;-72
2023/06/14 11:39:45;;;;;;;5.73;2.47;;;23.40;50.80;;;;;;5069754;28;20191;-73
2023/06/14 11:42:18;;;;;;;4.53;2.60;;;23.40;51.70;;;;;;5076029;28;20188;-72
2023/06/14 11:44:46;;;;;;;3.20;2.00;;;24.00;50.30;;;;;;5074485;28;20724;-71
2023/06/14 11:47:12;;;;;;;5.10;2.70;;;24.20;51.20;;;;;;5070507;28;20439;-69
2023/06/14 11:49:38;;;;;;;3.20;2.20;;;24.10;49.80;;;;;;5070339;28;20460;-71
2023/06/14 11:52:04;;;;;;;3.30;2.00;;;23.90;49.60;;;;;;5069619;28;20617;-71
2023/06/14 11:54:31;;;;;;;4.30;2.50;;;23.70;48.50;;;;;;5070009;28;20228;-72
2023/06/14 11:56:57;;;;;;;6.43;3.20;;;23.80;49.70;;;;;;5069896;28;20423;-72
2023/06/14 11:59:24;;;;;;;4.37;2.47;;;24.00;48.60;;;;;;5070534;28;20417;-73
2023/06/14 12:01:50;;;;;;;4.50;2.40;;;24.00;49.80;;;;;;5070114;28;20665;-73
2023/06/14 12:04:24;;;;;;;4.00;2.17;;;23.80;50.00;;;;;;5070360;28;20422;-72
2023/06/14 12:06:53;;;;;;;4.17;1.90;;;23.60;49.10;;;;;;5075472;28;20658;-72
2023/06/14 12:09:19;;;;;;;6.07;3.00;;;23.50;48.70;;;;;;5089864;28;20444;-72
2023/06/14 12:11:45;;;;;;;3.97;2.00;;;23.40;49.40;;;;;;5070571;28;20772;-72
2023/06/14 12:14:11;;;;;;;6.70;2.07;;;23.50;51.00;;;;;;5070609;28;20469;-72
2023/06/14 12:16:41;;;;;;;7.03;2.00;;;23.50;51.50;;;;;;5073855;28;20418;-76
2023/06/14 12:19:14;;;;;;;2.87;1.93;;;23.50;51.90;;;;;;5073906;28;20259;-73
2023/06/14 12:21:41;;;;;;;4.90;2.80;;;23.30;52.50;;;;;;5063545;28;20769;-78
2023/06/14 12:24:07;;;;;;;4.97;2.57;;;23.40;52.40;;;;;;5080265;28;20422;-72
2023/06/14 12:26:33;;;;;;;4.03;2.07;;;23.50;52.50;;;;;;5082824;28;20510;-74
2023/06/14 12:28:59;;;;;;;3.30;2.00;;;23.80;51.50;;;;;;5079422;28;20422;-77
2023/06/14 12:31:26;;;;;;;6.20;2.90;;;24.00;51.10;;;;;;5075257;28;20418;-73
2023/06/14 12:33:52;;;;;;;4.50;2.50;;;24.10;51.10;;;;;;5072432;28;20193;-73
2023/06/14 12:36:19;;;;;;;3.93;2.27;;;24.40;51.10;;;;;;5073092;28;20446;-73
2023/06/14 12:38:46;;;;;;;4.40;2.60;;;24.40;50.30;;;;;;5078731;28;20172;-73
2023/06/14 12:41:11;;;;;;;4.90;2.30;;;24.40;50.00;;;;;;5083269;28;20407;-73
2023/06/14 12:43:37;;;;;;;9.20;2.57;;;24.40;50.50;;;;;;5079194;28;20712;-73
2023/06/14 12:46:03;;;;;;;3.50;2.07;;;24.40;50.10;;;;;;5073697;28;20185;-72
2023/06/14 12:48:30;;;;;;;16.23;2.90;;;24.40;49.90;;;;;;5073488;28;20709;-70